sensor_id;sensor_type;location;lat;lon;timestamp;P1;durP1;ratioP1;P2;durP2;ratioP2
36839;SDS011;24406;51.640;9.566;2022-12-18T00:04:03;38.20;;;21.63;;
36839;SDS011;24406;51.640;9.566;2022-12-18T00:09:06;39.08;;;21.95;;
36839;SDS011;24406;51.640;9.566;2022-12-18T00:14:08;39.70;;;20.70;;
36839;SDS011;24406;51.640;9.566;2022-12-18T00:19:11;41.17;;;22.05;;
36839;SDS011;24406;51.640;9.566;2022-12-18T00:24:13;47.88;;;24.55;;
36839;SDS011;24406;51.640;9.566;2022-12-18T00:29:15;48.17;;;24.52;;
36839;SDS011;24406;51.640;9.566;2022-12-18T00:34:18;38.47;;;21.67;;
36839;SDS011;24406;51.640;9.566;2022-12-18T00:39:20;31.42;;;17.17;;
36839;SDS011;24406;51.640;9.566;2022-12-18T00:44:21;47.30;;;21.65;;
36839;SDS011;24406;51.640;9.566;2022-12-18T00:49:26;38.78;;;19.80;;
36839;SDS011;24406;51.640;9.566;2022-12-18T00:54:28;37.50;;;20.20;;
36839;SDS011;24406;51.640;9.566;2022-12-18T00:59:30;38.17;;;19.77;;
36839;SDS011;24406;51.640;9.566;2022-12-18T01:04:33;34.58;;;18.55;;
36839;SDS011;24406;51.640;9.566;2022-12-18T01:09:35;37.35;;;18.67;;
36839;SDS011;24406;51.640;9.566;2022-12-18T01:14:36;37.67;;;19.70;;
36839;SDS011;24406;51.640;9.566;2022-12-18T01:19:40;43.50;;;22.75;;
36839;SDS011;24406;51.640;9.566;2022-12-18T01:24:44;40.15;;;22.88;;
36839;SDS011;24406;51.640;9.566;2022-12-18T01:29:45;41.35;;;20.85;;
36839;SDS011;24406;51.640;9.566;2022-12-18T01:34:48;32.20;;;17.33;;
36839;SDS011;24406;51.640;9.566;2022-12-18T01:39:49;36.13;;;19.45;;
36839;SDS011;24406;51.640;9.566;2022-12-18T01:45:01;30.90;;;18.55;;
36839;SDS011;24406;51.640;9.566;2022-12-18T01:50:08;33.83;;;18.85;;
36839;SDS011;24406;51.640;9.566;2022-12-18T01:55:11;43.10;;;20.48;;
36839;SDS011;24406;51.640;9.566;2022-12-18T02:00:14;39.67;;;19.90;;
36839;SDS011;24406;51.640;9.566;2022-12-18T02:05:20;40.47;;;21.08;;
36839;SDS011;24406;51.640;9.566;2022-12-18T02:10:26;39.42;;;19.45;;
36839;SDS011;24406;51.640;9.566;2022-12-18T02:15:30;32.13;;;18.02;;
36839;SDS011;24406;51.640;9.566;2022-12-18T02:20:39;32.10;;;16.40;;
36839;SDS011;24406;51.640;9.566;2022-12-18T02:31:08;35.97;;;19.67;;
36839;SDS011;24406;51.640;9.566;2022-12-18T02:36:12;35.95;;;18.95;;
36839;SDS011;24406;51.640;9.566;2022-12-18T02:41:17;34.03;;;20.13;;
36839;SDS011;24406;51.640;9.566;2022-12-18T02:46:24;41.40;;;19.17;;
36839;SDS011;24406;51.640;9.566;2022-12-18T02:51:30;34.50;;;19.35;;
36839;SDS011;24406;51.640;9.566;2022-12-18T02:56:36;37.75;;;19.10;;
36839;SDS011;24406;51.640;9.566;2022-12-18T03:01:41;35.28;;;18.13;;
36839;SDS011;24406;51.640;9.566;2022-12-18T03:06:46;33.60;;;18.08;;
36839;SDS011;24406;51.640;9.566;2022-12-18T03:11:52;32.95;;;18.00;;
36839;SDS011;24406;51.640;9.566;2022-12-18T03:17:13;34.72;;;18.13;;
36839;SDS011;24406;51.640;9.566;2022-12-18T03:22:16;29.92;;;16.13;;
36839;SDS011;24406;51.640;9.566;2022-12-18T03:27:24;34.72;;;17.90;;
36839;SDS011;24406;51.640;9.566;2022-12-18T03:32:30;32.38;;;17.95;;
36839;SDS011;24406;51.640;9.566;2022-12-18T03:37:36;40.20;;;20.80;;
36839;SDS011;24406;51.640;9.566;2022-12-18T03:42:42;35.20;;;18.83;;
36839;SDS011;24406;51.640;9.566;2022-12-18T03:47:50;31.15;;;17.13;;
36839;SDS011;24406;51.640;9.566;2022-12-18T03:53:00;33.50;;;19.60;;
36839;SDS011;24406;51.640;9.566;2022-12-18T03:58:08;31.73;;;19.02;;
36839;SDS011;24406;51.640;9.566;2022-12-18T04:03:23;35.22;;;17.25;;
36839;SDS011;24406;51.640;9.566;2022-12-18T04:08:26;31.05;;;18.90;;
36839;SDS011;24406;51.640;9.566;2022-12-18T04:13:39;31.80;;;17.55;;
36839;SDS011;24406;51.640;9.566;2022-12-18T04:18:46;35.78;;;18.33;;
36839;SDS011;24406;51.640;9.566;2022-12-18T04:23:49;27.95;;;16.08;;
36839;SDS011;24406;51.640;9.566;2022-12-18T04:28:54;30.42;;;17.08;;
36839;SDS011;24406;51.640;9.566;2022-12-18T04:33:56;29.33;;;17.02;;
36839;SDS011;24406;51.640;9.566;2022-12-18T04:38:58;27.02;;;16.30;;
36839;SDS011;24406;51.640;9.566;2022-12-18T04:44:02;30.80;;;16.10;;
36839;SDS011;24406;51.640;9.566;2022-12-18T04:49:03;31.55;;;16.17;;
36839;SDS011;24406;51.640;9.566;2022-12-18T04:54:05;26.67;;;16.70;;
36839;SDS011;24406;51.640;9.566;2022-12-18T04:59:08;27.10;;;14.40;;
36839;SDS011;24406;51.640;9.566;2022-12-18T05:04:09;27.80;;;16.83;;
36839;SDS011;24406;51.640;9.566;2022-12-18T05:09:11;26.85;;;16.08;;
36839;SDS011;24406;51.640;9.566;2022-12-18T05:14:13;30.48;;;15.35;;
36839;SDS011;24406;51.640;9.566;2022-12-18T05:19:15;32.13;;;15.60;;
36839;SDS011;24406;51.640;9.566;2022-12-18T05:24:16;33.60;;;15.82;;
36839;SDS011;24406;51.640;9.566;2022-12-18T05:29:19;38.60;;;17.95;;
36839;SDS011;24406;51.640;9.566;2022-12-18T05:34:21;29.10;;;15.07;;
36839;SDS011;24406;51.640;9.566;2022-12-18T05:39:22;28.55;;;14.32;;
36839;SDS011;24406;51.640;9.566;2022-12-18T05:44:25;29.15;;;15.73;;
36839;SDS011;24406;51.640;9.566;2022-12-18T05:49:26;25.88;;;14.63;;
36839;SDS011;24406;51.640;9.566;2022-12-18T05:54:28;27.60;;;13.70;;
36839;SDS011;24406;51.640;9.566;2022-12-18T05:59:31;28.27;;;13.85;;
36839;SDS011;24406;51.640;9.566;2022-12-18T06:04:32;30.27;;;15.75;;
36839;SDS011;24406;51.640;9.566;2022-12-18T06:09:34;52.55;;;22.92;;
36839;SDS011;24406;51.640;9.566;2022-12-18T06:14:37;65.32;;;27.15;;
36839;SDS011;24406;51.640;9.566;2022-12-18T06:19:38;41.88;;;20.52;;
36839;SDS011;24406;51.640;9.566;2022-12-18T06:24:40;35.03;;;18.05;;
36839;SDS011;24406;51.640;9.566;2022-12-18T06:29:43;27.33;;;15.35;;
36839;SDS011;24406;51.640;9.566;2022-12-18T06:34:44;29.42;;;15.07;;
36839;SDS011;24406;51.640;9.566;2022-12-18T06:39:46;27.55;;;14.02;;
36839;SDS011;24406;51.640;9.566;2022-12-18T06:44:49;33.70;;;16.52;;
36839;SDS011;24406;51.640;9.566;2022-12-18T06:49:50;36.70;;;16.02;;
36839;SDS011;24406;51.640;9.566;2022-12-18T06:54:52;33.75;;;16.48;;
36839;SDS011;24406;51.640;9.566;2022-12-18T06:59:55;29.73;;;14.65;;
36839;SDS011;24406;51.640;9.566;2022-12-18T07:04:56;30.27;;;14.70;;
36839;SDS011;24406;51.640;9.566;2022-12-18T07:09:58;31.33;;;17.15;;
36839;SDS011;24406;51.640;9.566;2022-12-18T07:15:00;31.25;;;13.93;;
36839;SDS011;24406;51.640;9.566;2022-12-18T07:20:03;26.90;;;16.35;;
36839;SDS011;24406;51.640;9.566;2022-12-18T07:25:05;31.15;;;15.85;;
36839;SDS011;24406;51.640;9.566;2022-12-18T07:30:10;28.77;;;14.48;;
36839;SDS011;24406;51.640;9.566;2022-12-18T07:35:12;24.33;;;12.90;;
36839;SDS011;24406;51.640;9.566;2022-12-18T07:40:14;27.90;;;15.75;;
36839;SDS011;24406;51.640;9.566;2022-12-18T07:45:17;29.08;;;16.48;;
36839;SDS011;24406;51.640;9.566;2022-12-18T07:50:18;29.33;;;17.23;;
36839;SDS011;24406;51.640;9.566;2022-12-18T07:55:20;30.08;;;14.98;;
36839;SDS011;24406;51.640;9.566;2022-12-18T08:00:22;34.63;;;14.82;;
36839;SDS011;24406;51.640;9.566;2022-12-18T08:05:24;31.73;;;19.50;;
36839;SDS011;24406;51.640;9.566;2022-12-18T08:10:26;29.58;;;17.02;;
36839;SDS011;24406;51.640;9.566;2022-12-18T08:15:29;29.83;;;16.17;;
36839;SDS011;24406;51.640;9.566;2022-12-18T08:20:30;25.42;;;15.45;;
36839;SDS011;24406;51.640;9.566;2022-12-18T08:25:31;57.22;;;30.25;;
36839;SDS011;24406;51.640;9.566;2022-12-18T08:30:34;38.65;;;22.20;;
36839;SDS011;24406;51.640;9.566;2022-12-18T08:35:36;28.48;;;16.52;;
36839;SDS011;24406;51.640;9.566;2022-12-18T08:40:37;31.73;;;16.38;;
36839;SDS011;24406;51.640;9.566;2022-12-18T08:45:40;27.23;;;16.27;;
36839;SDS011;24406;51.640;9.566;2022-12-18T08:50:42;27.95;;;17.23;;
36839;SDS011;24406;51.640;9.566;2022-12-18T08:55:43;31.20;;;16.38;;
36839;SDS011;24406;51.640;9.566;2022-12-18T09:00:46;32.38;;;20.48;;
36839;SDS011;24406;51.640;9.566;2022-12-18T09:05:48;27.35;;;16.77;;
36839;SDS011;24406;51.640;9.566;2022-12-18T09:10:50;28.48;;;15.23;;
36839;SDS011;24406;51.640;9.566;2022-12-18T09:15:54;37.33;;;20.70;;
36839;SDS011;24406;51.640;9.566;2022-12-18T09:20:55;43.20;;;23.35;;
36839;SDS011;24406;51.640;9.566;2022-12-18T09:25:58;28.25;;;16.13;;
36839;SDS011;24406;51.640;9.566;2022-12-18T09:31:04;28.77;;;15.15;;
36839;SDS011;24406;51.640;9.566;2022-12-18T09:36:08;29.02;;;16.42;;
36839;SDS011;24406;51.640;9.566;2022-12-18T09:41:16;24.40;;;15.23;;
36839;SDS011;24406;51.640;9.566;2022-12-18T09:46:27;26.15;;;17.65;;
36839;SDS011;24406;51.640;9.566;2022-12-18T09:51:32;28.25;;;17.75;;
36839;SDS011;24406;51.640;9.566;2022-12-18T09:56:39;33.08;;;19.10;;
36839;SDS011;24406;51.640;9.566;2022-12-18T10:01:43;27.45;;;17.02;;
36839;SDS011;24406;51.640;9.566;2022-12-18T10:06:46;28.15;;;16.42;;
36839;SDS011;24406;51.640;9.566;2022-12-18T10:11:53;28.13;;;17.13;;
36839;SDS011;24406;51.640;9.566;2022-12-18T10:17:02;30.23;;;18.00;;
36839;SDS011;24406;51.640;9.566;2022-12-18T10:22:15;31.33;;;19.27;;
36839;SDS011;24406;51.640;9.566;2022-12-18T10:27:23;39.95;;;22.65;;
36839;SDS011;24406;51.640;9.566;2022-12-18T10:32:29;38.55;;;21.98;;
36839;SDS011;24406;51.640;9.566;2022-12-18T10:37:31;34.28;;;20.38;;
36839;SDS011;24406;51.640;9.566;2022-12-18T10:42:33;37.10;;;21.90;;
36839;SDS011;24406;51.640;9.566;2022-12-18T10:47:36;41.20;;;22.40;;
36839;SDS011;24406;51.640;9.566;2022-12-18T10:52:37;34.15;;;22.27;;
36839;SDS011;24406;51.640;9.566;2022-12-18T10:57:39;29.77;;;19.08;;
36839;SDS011;24406;51.640;9.566;2022-12-18T11:02:42;31.83;;;19.10;;
36839;SDS011;24406;51.640;9.566;2022-12-18T11:07:47;28.92;;;18.73;;
36839;SDS011;24406;51.640;9.566;2022-12-18T11:12:50;29.05;;;18.00;;
36839;SDS011;24406;51.640;9.566;2022-12-18T11:17:52;31.23;;;18.67;;
36839;SDS011;24406;51.640;9.566;2022-12-18T11:22:55;27.25;;;17.90;;
36839;SDS011;24406;51.640;9.566;2022-12-18T11:27:58;27.15;;;17.73;;
36839;SDS011;24406;51.640;9.566;2022-12-18T11:33:03;28.73;;;19.33;;
36839;SDS011;24406;51.640;9.566;2022-12-18T11:38:10;33.35;;;20.80;;
36839;SDS011;24406;51.640;9.566;2022-12-18T11:43:21;33.60;;;22.42;;
36839;SDS011;24406;51.640;9.566;2022-12-18T11:48:28;39.08;;;24.17;;
36839;SDS011;24406;51.640;9.566;2022-12-18T11:53:31;32.95;;;21.83;;
36839;SDS011;24406;51.640;9.566;2022-12-18T11:58:37;36.97;;;22.63;;
36839;SDS011;24406;51.640;9.566;2022-12-18T12:04:00;36.50;;;23.00;;
36839;SDS011;24406;51.640;9.566;2022-12-18T12:09:10;37.45;;;24.60;;
36839;SDS011;24406;51.640;9.566;2022-12-18T12:14:22;31.98;;;21.55;;
36839;SDS011;24406;51.640;9.566;2022-12-18T12:19:34;34.00;;;21.98;;
36839;SDS011;24406;51.640;9.566;2022-12-18T12:24:43;39.65;;;24.52;;
36839;SDS011;24406;51.640;9.566;2022-12-18T12:29:55;38.95;;;27.42;;
36839;SDS011;24406;51.640;9.566;2022-12-18T12:35:06;41.20;;;27.15;;
36839;SDS011;24406;51.640;9.566;2022-12-18T12:40:19;47.92;;;28.85;;
36839;SDS011;24406;51.640;9.566;2022-12-18T12:45:22;44.08;;;29.00;;
36839;SDS011;24406;51.640;9.566;2022-12-18T12:50:29;35.33;;;22.70;;
36839;SDS011;24406;51.640;9.566;2022-12-18T12:55:34;34.35;;;22.48;;
36839;SDS011;24406;51.640;9.566;2022-12-18T13:00:37;35.10;;;22.70;;
36839;SDS011;24406;51.640;9.566;2022-12-18T13:05:43;33.05;;;21.08;;
36839;SDS011;24406;51.640;9.566;2022-12-18T13:10:49;32.70;;;22.50;;
36839;SDS011;24406;51.640;9.566;2022-12-18T13:16:10;39.40;;;22.27;;
36839;SDS011;24406;51.640;9.566;2022-12-18T13:21:16;31.38;;;21.17;;
36839;SDS011;24406;51.640;9.566;2022-12-18T13:26:30;55.92;;;29.55;;
36839;SDS011;24406;51.640;9.566;2022-12-18T13:42:44;29.80;;;19.50;;
36839;SDS011;24406;51.640;9.566;2022-12-18T13:48:04;32.70;;;21.23;;
36839;SDS011;24406;51.640;9.566;2022-12-18T13:53:11;27.45;;;18.67;;
36839;SDS011;24406;51.640;9.566;2022-12-18T13:58:20;25.63;;;17.20;;
36839;SDS011;24406;51.640;9.566;2022-12-18T14:03:23;26.45;;;17.45;;
36839;SDS011;24406;51.640;9.566;2022-12-18T14:08:29;24.95;;;16.80;;
36839;SDS011;24406;51.640;9.566;2022-12-18T14:13:35;34.88;;;20.98;;
36839;SDS011;24406;51.640;9.566;2022-12-18T14:18:41;46.63;;;28.20;;
36839;SDS011;24406;51.640;9.566;2022-12-18T14:23:46;48.30;;;30.27;;
36839;SDS011;24406;51.640;9.566;2022-12-18T14:28:48;46.85;;;30.05;;
36839;SDS011;24406;51.640;9.566;2022-12-18T14:33:49;45.38;;;27.65;;
36839;SDS011;24406;51.640;9.566;2022-12-18T14:38:53;42.45;;;26.80;;
36839;SDS011;24406;51.640;9.566;2022-12-18T14:43:56;41.00;;;27.58;;
36839;SDS011;24406;51.640;9.566;2022-12-18T14:49:17;41.25;;;28.30;;
36839;SDS011;24406;51.640;9.566;2022-12-18T14:54:22;42.53;;;27.55;;
36839;SDS011;24406;51.640;9.566;2022-12-18T14:59:25;43.17;;;28.40;;
36839;SDS011;24406;51.640;9.566;2022-12-18T15:04:28;43.58;;;27.70;;
36839;SDS011;24406;51.640;9.566;2022-12-18T15:09:32;41.22;;;24.92;;
36839;SDS011;24406;51.640;9.566;2022-12-18T15:14:34;54.30;;;37.70;;
36839;SDS011;24406;51.640;9.566;2022-12-18T15:19:40;44.90;;;28.60;;
36839;SDS011;24406;51.640;9.566;2022-12-18T15:24:44;54.33;;;33.38;;
36839;SDS011;24406;51.640;9.566;2022-12-18T15:29:58;70.30;;;38.42;;
36839;SDS011;24406;51.640;9.566;2022-12-18T15:35:08;56.97;;;35.88;;
36839;SDS011;24406;51.640;9.566;2022-12-18T15:40:16;54.67;;;35.42;;
36839;SDS011;24406;51.640;9.566;2022-12-18T15:45:18;61.72;;;34.38;;
36839;SDS011;24406;51.640;9.566;2022-12-18T15:50:19;57.92;;;34.72;;
36839;SDS011;24406;51.640;9.566;2022-12-18T15:55:23;57.47;;;34.78;;
36839;SDS011;24406;51.640;9.566;2022-12-18T16:00:44;48.38;;;32.20;;
36839;SDS011;24406;51.640;9.566;2022-12-18T16:05:45;49.58;;;32.92;;
36839;SDS011;24406;51.640;9.566;2022-12-18T16:10:48;47.28;;;30.75;;
36839;SDS011;24406;51.640;9.566;2022-12-18T16:15:49;42.47;;;28.52;;
36839;SDS011;24406;51.640;9.566;2022-12-18T16:20:51;41.63;;;25.48;;
36839;SDS011;24406;51.640;9.566;2022-12-18T16:25:54;42.28;;;26.23;;
36839;SDS011;24406;51.640;9.566;2022-12-18T16:30:55;40.97;;;25.48;;
36839;SDS011;24406;51.640;9.566;2022-12-18T16:35:57;45.72;;;29.88;;
36839;SDS011;24406;51.640;9.566;2022-12-18T16:40:59;60.47;;;38.20;;
36839;SDS011;24406;51.640;9.566;2022-12-18T16:46:18;62.53;;;39.63;;
36839;SDS011;24406;51.640;9.566;2022-12-18T16:51:20;72.72;;;42.40;;
36839;SDS011;24406;51.640;9.566;2022-12-18T16:56:23;71.78;;;45.70;;
36839;SDS011;24406;51.640;9.566;2022-12-18T17:01:25;65.43;;;40.13;;
36839;SDS011;24406;51.640;9.566;2022-12-18T17:06:30;62.42;;;38.40;;
36839;SDS011;24406;51.640;9.566;2022-12-18T17:11:34;53.28;;;36.22;;
36839;SDS011;24406;51.640;9.566;2022-12-18T17:16:36;61.08;;;36.95;;
36839;SDS011;24406;51.640;9.566;2022-12-18T17:21:37;65.32;;;41.10;;
36839;SDS011;24406;51.640;9.566;2022-12-18T17:26:40;63.42;;;41.13;;
36839;SDS011;24406;51.640;9.566;2022-12-18T17:31:42;51.28;;;33.20;;
36839;SDS011;24406;51.640;9.566;2022-12-18T17:36:43;48.90;;;30.52;;
36839;SDS011;24406;51.640;9.566;2022-12-18T17:41:47;51.53;;;28.45;;
36839;SDS011;24406;51.640;9.566;2022-12-18T17:46:48;57.80;;;33.95;;
36839;SDS011;24406;51.640;9.566;2022-12-18T17:51:50;58.63;;;38.40;;
36839;SDS011;24406;51.640;9.566;2022-12-18T17:56:54;73.90;;;46.90;;
36839;SDS011;24406;51.640;9.566;2022-12-18T18:01:55;83.50;;;52.00;;
36839;SDS011;24406;51.640;9.566;2022-12-18T18:06:57;102.75;;;60.10;;
36839;SDS011;24406;51.640;9.566;2022-12-18T18:12:00;90.72;;;54.75;;
36839;SDS011;24406;51.640;9.566;2022-12-18T18:17:30;85.28;;;50.95;;
36839;SDS011;24406;51.640;9.566;2022-12-18T18:22:33;77.22;;;44.72;;
36839;SDS011;24406;51.640;9.566;2022-12-18T18:27:36;83.20;;;47.75;;
36839;SDS011;24406;51.640;9.566;2022-12-18T18:32:37;71.03;;;45.10;;
36839;SDS011;24406;51.640;9.566;2022-12-18T18:37:39;60.28;;;34.80;;
36839;SDS011;24406;51.640;9.566;2022-12-18T18:42:42;30.15;;;20.15;;
36839;SDS011;24406;51.640;9.566;2022-12-18T18:47:43;36.97;;;23.25;;
36839;SDS011;24406;51.640;9.566;2022-12-18T18:52:45;60.00;;;37.13;;
36839;SDS011;24406;51.640;9.566;2022-12-18T18:57:47;75.70;;;48.88;;
36839;SDS011;24406;51.640;9.566;2022-12-18T19:02:49;85.85;;;47.33;;
36839;SDS011;24406;51.640;9.566;2022-12-18T19:07:50;99.00;;;60.85;;
36839;SDS011;24406;51.640;9.566;2022-12-18T19:12:53;85.97;;;49.13;;
36839;SDS011;24406;51.640;9.566;2022-12-18T19:18:12;75.25;;;43.97;;
36839;SDS011;24406;51.640;9.566;2022-12-18T19:23:14;76.10;;;45.53;;
36839;SDS011;24406;51.640;9.566;2022-12-18T19:28:17;77.70;;;45.38;;
36839;SDS011;24406;51.640;9.566;2022-12-18T19:33:20;71.35;;;44.47;;
36839;SDS011;24406;51.640;9.566;2022-12-18T19:38:21;73.28;;;43.97;;
36839;SDS011;24406;51.640;9.566;2022-12-18T19:43:24;70.78;;;45.22;;
36839;SDS011;24406;51.640;9.566;2022-12-18T19:48:26;74.07;;;45.72;;
36839;SDS011;24406;51.640;9.566;2022-12-18T19:53:27;80.60;;;48.88;;
36839;SDS011;24406;51.640;9.566;2022-12-18T19:58:30;117.75;;;62.88;;
36839;SDS011;24406;51.640;9.566;2022-12-18T20:03:32;114.07;;;61.95;;
36839;SDS011;24406;51.640;9.566;2022-12-18T20:08:33;81.47;;;46.75;;
36839;SDS011;24406;51.640;9.566;2022-12-18T20:13:36;91.65;;;46.90;;
36839;SDS011;24406;51.640;9.566;2022-12-18T20:18:38;83.40;;;45.03;;
36839;SDS011;24406;51.640;9.566;2022-12-18T20:23:39;81.55;;;47.72;;
36839;SDS011;24406;51.640;9.566;2022-12-18T20:28:42;190.43;;;79.55;;
36839;SDS011;24406;51.640;9.566;2022-12-18T20:33:44;167.40;;;75.30;;
36839;SDS011;24406;51.640;9.566;2022-12-18T20:38:45;98.13;;;53.13;;
36839;SDS011;24406;51.640;9.566;2022-12-18T20:43:48;84.78;;;50.30;;
36839;SDS011;24406;51.640;9.566;2022-12-18T20:48:50;73.72;;;46.88;;
36839;SDS011;24406;51.640;9.566;2022-12-18T20:53:53;63.17;;;38.92;;
36839;SDS011;24406;51.640;9.566;2022-12-18T20:58:56;64.50;;;40.60;;
36839;SDS011;24406;51.640;9.566;2022-12-18T21:03:59;68.10;;;40.13;;
36839;SDS011;24406;51.640;9.566;2022-12-18T21:09:00;71.10;;;40.28;;
36839;SDS011;24406;51.640;9.566;2022-12-18T21:14:04;61.47;;;37.10;;
36839;SDS011;24406;51.640;9.566;2022-12-18T21:19:07;57.83;;;35.35;;
36839;SDS011;24406;51.640;9.566;2022-12-18T21:24:08;59.80;;;34.03;;
36839;SDS011;24406;51.640;9.566;2022-12-18T21:29:12;59.97;;;34.72;;
36839;SDS011;24406;51.640;9.566;2022-12-18T21:34:16;62.72;;;34.85;;
36839;SDS011;24406;51.640;9.566;2022-12-18T21:39:19;53.58;;;33.42;;
36839;SDS011;24406;51.640;9.566;2022-12-18T21:44:22;60.92;;;35.58;;
36839;SDS011;24406;51.640;9.566;2022-12-18T21:49:23;63.00;;;36.58;;
36839;SDS011;24406;51.640;9.566;2022-12-18T21:54:26;63.60;;;34.28;;
36839;SDS011;24406;51.640;9.566;2022-12-18T21:59:30;56.95;;;34.38;;
36839;SDS011;24406;51.640;9.566;2022-12-18T22:04:32;56.05;;;31.23;;
36839;SDS011;24406;51.640;9.566;2022-12-18T22:09:34;52.55;;;32.53;;
36839;SDS011;24406;51.640;9.566;2022-12-18T22:14:37;55.63;;;33.55;;
36839;SDS011;24406;51.640;9.566;2022-12-18T22:19:38;59.20;;;34.72;;
36839;SDS011;24406;51.640;9.566;2022-12-18T22:24:40;52.22;;;31.42;;
36839;SDS011;24406;51.640;9.566;2022-12-18T22:29:43;53.50;;;32.42;;
36839;SDS011;24406;51.640;9.566;2022-12-18T22:35:02;49.47;;;30.05;;
36839;SDS011;24406;51.640;9.566;2022-12-18T22:40:05;47.03;;;29.80;;
36839;SDS011;24406;51.640;9.566;2022-12-18T22:45:09;46.17;;;29.23;;
36839;SDS011;24406;51.640;9.566;2022-12-18T22:50:12;53.20;;;30.95;;
36839;SDS011;24406;51.640;9.566;2022-12-18T22:55:14;42.92;;;26.80;;
36839;SDS011;24406;51.640;9.566;2022-12-18T23:00:17;53.08;;;32.08;;
36839;SDS011;24406;51.640;9.566;2022-12-18T23:05:19;53.85;;;34.17;;
36839;SDS011;24406;51.640;9.566;2022-12-18T23:10:20;59.78;;;34.67;;
36839;SDS011;24406;51.640;9.566;2022-12-18T23:15:24;67.63;;;37.47;;
36839;SDS011;24406;51.640;9.566;2022-12-18T23:20:26;64.82;;;38.08;;
36839;SDS011;24406;51.640;9.566;2022-12-18T23:25:27;70.90;;;36.92;;
36839;SDS011;24406;51.640;9.566;2022-12-18T23:30:30;55.67;;;33.55;;
36839;SDS011;24406;51.640;9.566;2022-12-18T23:35:32;46.17;;;28.70;;
36839;SDS011;24406;51.640;9.566;2022-12-18T23:40:34;66.82;;;39.53;;
36839;SDS011;24406;51.640;9.566;2022-12-18T23:45:37;64.30;;;37.63;;
36839;SDS011;24406;51.640;9.566;2022-12-18T23:50:39;51.75;;;32.08;;
36839;SDS011;24406;51.640;9.566;2022-12-18T23:55:41;49.25;;;30.80;;
